sensor_id;sensor_type;location;lat;lon;timestamp;P1;durP1;ratioP1;P2;durP2;ratioP2
57047;SDS011;42934;54.294;18.598;2023-02-28T00:02:01;83.00;;;33.10;;
57047;SDS011;42934;54.294;18.598;2023-02-28T00:04:30;78.97;;;32.85;;
57047;SDS011;42934;54.294;18.598;2023-02-28T00:06:59;77.38;;;28.45;;
57047;SDS011;42934;54.294;18.598;2023-02-28T00:11:58;66.50;;;28.50;;
57047;SDS011;42934;54.294;18.598;2023-02-28T00:14:30;62.25;;;25.95;;
57047;SDS011;42934;54.294;18.598;2023-02-28T00:16:59;62.92;;;25.73;;
57047;SDS011;42934;54.294;18.598;2023-02-28T00:19:28;63.20;;;24.58;;
57047;SDS011;42934;54.294;18.598;2023-02-28T00:21:57;53.92;;;23.42;;
57047;SDS011;42934;54.294;18.598;2023-02-28T00:24:27;58.97;;;25.08;;
57047;SDS011;42934;54.294;18.598;2023-02-28T00:26:56;60.78;;;26.88;;
57047;SDS011;42934;54.294;18.598;2023-02-28T00:29:25;61.35;;;24.60;;
57047;SDS011;42934;54.294;18.598;2023-02-28T00:31:54;63.78;;;24.45;;
57047;SDS011;42934;54.294;18.598;2023-02-28T00:34:23;55.55;;;24.35;;
57047;SDS011;42934;54.294;18.598;2023-02-28T00:36:53;60.80;;;25.98;;
57047;SDS011;42934;54.294;18.598;2023-02-28T00:39:21;65.40;;;24.98;;
57047;SDS011;42934;54.294;18.598;2023-02-28T00:41:52;64.73;;;25.53;;
57047;SDS011;42934;54.294;18.598;2023-02-28T00:44:21;55.78;;;21.58;;
57047;SDS011;42934;54.294;18.598;2023-02-28T00:46:50;47.25;;;19.25;;
57047;SDS011;42934;54.294;18.598;2023-02-28T00:49:23;53.03;;;20.58;;
57047;SDS011;42934;54.294;18.598;2023-02-28T00:51:53;44.78;;;18.77;;
57047;SDS011;42934;54.294;18.598;2023-02-28T00:54:24;46.65;;;18.42;;
57047;SDS011;42934;54.294;18.598;2023-02-28T00:56:55;46.63;;;19.93;;
57047;SDS011;42934;54.294;18.598;2023-02-28T01:01:53;47.20;;;16.75;;
57047;SDS011;42934;54.294;18.598;2023-02-28T01:04:22;41.60;;;17.27;;
57047;SDS011;42934;54.294;18.598;2023-02-28T01:06:52;46.33;;;19.92;;
57047;SDS011;42934;54.294;18.598;2023-02-28T01:09:20;47.67;;;19.33;;
57047;SDS011;42934;54.294;18.598;2023-02-28T01:11:50;47.10;;;19.25;;
57047;SDS011;42934;54.294;18.598;2023-02-28T01:14:20;51.63;;;20.73;;
57047;SDS011;42934;54.294;18.598;2023-02-28T01:16:50;51.05;;;20.08;;
57047;SDS011;42934;54.294;18.598;2023-02-28T01:19:19;50.80;;;21.27;;
57047;SDS011;42934;54.294;18.598;2023-02-28T01:21:48;56.67;;;22.90;;
57047;SDS011;42934;54.294;18.598;2023-02-28T01:24:17;63.10;;;22.92;;
57047;SDS011;42934;54.294;18.598;2023-02-28T01:26:46;64.63;;;26.17;;
57047;SDS011;42934;54.294;18.598;2023-02-28T01:29:15;59.78;;;23.73;;
57047;SDS011;42934;54.294;18.598;2023-02-28T01:31:46;69.57;;;25.50;;
57047;SDS011;42934;54.294;18.598;2023-02-28T01:36:46;57.67;;;24.00;;
57047;SDS011;42934;54.294;18.598;2023-02-28T01:39:14;58.15;;;24.58;;
57047;SDS011;42934;54.294;18.598;2023-02-28T01:41:44;49.33;;;23.50;;
57047;SDS011;42934;54.294;18.598;2023-02-28T01:47:20;56.95;;;22.52;;
57047;SDS011;42934;54.294;18.598;2023-02-28T01:49:52;51.30;;;21.52;;
57047;SDS011;42934;54.294;18.598;2023-02-28T01:52:21;56.33;;;23.30;;
57047;SDS011;42934;54.294;18.598;2023-02-28T01:54:53;53.63;;;22.77;;
57047;SDS011;42934;54.294;18.598;2023-02-28T01:57:25;55.75;;;22.55;;
57047;SDS011;42934;54.294;18.598;2023-02-28T02:00:05;49.67;;;22.00;;
57047;SDS011;42934;54.294;18.598;2023-02-28T02:02:41;55.10;;;21.35;;
57047;SDS011;42934;54.294;18.598;2023-02-28T02:05:14;48.10;;;19.80;;
57047;SDS011;42934;54.294;18.598;2023-02-28T02:07:46;53.65;;;21.65;;
57047;SDS011;42934;54.294;18.598;2023-02-28T02:10:18;49.08;;;19.38;;
57047;SDS011;42934;54.294;18.598;2023-02-28T02:12:56;46.85;;;18.25;;
57047;SDS011;42934;54.294;18.598;2023-02-28T02:15:46;45.20;;;17.00;;
57047;SDS011;42934;54.294;18.598;2023-02-28T02:18:29;45.88;;;18.95;;
57047;SDS011;42934;54.294;18.598;2023-02-28T02:21:15;43.13;;;17.23;;
57047;SDS011;42934;54.294;18.598;2023-02-28T02:24:33;42.22;;;17.45;;
57047;SDS011;42934;54.294;18.598;2023-02-28T02:27:20;41.00;;;17.00;;
57047;SDS011;42934;54.294;18.598;2023-02-28T02:30:04;48.13;;;18.35;;
57047;SDS011;42934;54.294;18.598;2023-02-28T02:33:13;32.42;;;14.13;;
57047;SDS011;42934;54.294;18.598;2023-02-28T02:36:09;31.90;;;14.15;;
57047;SDS011;42934;54.294;18.598;2023-02-28T02:38:47;25.17;;;9.77;;
57047;SDS011;42934;54.294;18.598;2023-02-28T02:41:23;22.65;;;8.98;;
57047;SDS011;42934;54.294;18.598;2023-02-28T02:43:56;26.55;;;10.68;;
57047;SDS011;42934;54.294;18.598;2023-02-28T02:46:31;19.70;;;8.75;;
57047;SDS011;42934;54.294;18.598;2023-02-28T02:49:03;21.15;;;8.60;;
57047;SDS011;42934;54.294;18.598;2023-02-28T02:51:38;17.60;;;7.53;;
57047;SDS011;42934;54.294;18.598;2023-02-28T02:54:11;17.95;;;6.78;;
57047;SDS011;42934;54.294;18.598;2023-02-28T02:56:45;15.75;;;6.55;;
57047;SDS011;42934;54.294;18.598;2023-02-28T02:59:18;15.55;;;7.22;;
57047;SDS011;42934;54.294;18.598;2023-02-28T03:01:51;16.30;;;7.25;;
57047;SDS011;42934;54.294;18.598;2023-02-28T03:04:24;16.55;;;7.45;;
57047;SDS011;42934;54.294;18.598;2023-02-28T03:06:59;14.98;;;7.13;;
57047;SDS011;42934;54.294;18.598;2023-02-28T03:12:02;16.40;;;7.47;;
57047;SDS011;42934;54.294;18.598;2023-02-28T03:14:41;18.85;;;7.95;;
57047;SDS011;42934;54.294;18.598;2023-02-28T03:17:44;22.13;;;9.30;;
57047;SDS011;42934;54.294;18.598;2023-02-28T03:20:26;21.08;;;8.75;;
57047;SDS011;42934;54.294;18.598;2023-02-28T03:23:07;18.15;;;8.07;;
57047;SDS011;42934;54.294;18.598;2023-02-28T03:25:53;24.30;;;9.85;;
57047;SDS011;42934;54.294;18.598;2023-02-28T03:28:30;23.05;;;10.23;;
57047;SDS011;42934;54.294;18.598;2023-02-28T03:31:06;28.50;;;10.98;;
57047;SDS011;42934;54.294;18.598;2023-02-28T03:33:44;26.25;;;11.15;;
57047;SDS011;42934;54.294;18.598;2023-02-28T03:36:21;26.63;;;10.63;;
57047;SDS011;42934;54.294;18.598;2023-02-28T03:38:57;24.55;;;11.82;;
57047;SDS011;42934;54.294;18.598;2023-02-28T03:41:30;25.67;;;11.63;;
57047;SDS011;42934;54.294;18.598;2023-02-28T03:44:06;25.42;;;11.27;;
57047;SDS011;42934;54.294;18.598;2023-02-28T03:46:42;20.65;;;9.27;;
57047;SDS011;42934;54.294;18.598;2023-02-28T03:49:17;21.77;;;9.27;;
57047;SDS011;42934;54.294;18.598;2023-02-28T03:51:50;21.13;;;8.45;;
57047;SDS011;42934;54.294;18.598;2023-02-28T03:54:26;19.92;;;8.88;;
57047;SDS011;42934;54.294;18.598;2023-02-28T03:56:59;22.13;;;9.65;;
57047;SDS011;42934;54.294;18.598;2023-02-28T03:59:35;22.13;;;9.05;;
57047;SDS011;42934;54.294;18.598;2023-02-28T04:02:10;20.67;;;9.05;;
57047;SDS011;42934;54.294;18.598;2023-02-28T04:04:39;21.85;;;9.07;;
57047;SDS011;42934;54.294;18.598;2023-02-28T04:07:11;24.02;;;9.27;;
57047;SDS011;42934;54.294;18.598;2023-02-28T04:09:42;20.85;;;9.57;;
57047;SDS011;42934;54.294;18.598;2023-02-28T04:12:11;19.80;;;9.05;;
57047;SDS011;42934;54.294;18.598;2023-02-28T04:14:41;24.35;;;10.18;;
57047;SDS011;42934;54.294;18.598;2023-02-28T04:17:10;21.30;;;8.70;;
57047;SDS011;42934;54.294;18.598;2023-02-28T04:19:39;21.45;;;9.35;;
57047;SDS011;42934;54.294;18.598;2023-02-28T04:22:08;21.35;;;8.73;;
57047;SDS011;42934;54.294;18.598;2023-02-28T04:24:38;17.60;;;8.02;;
57047;SDS011;42934;54.294;18.598;2023-02-28T04:27:09;21.13;;;8.27;;
57047;SDS011;42934;54.294;18.598;2023-02-28T04:29:38;14.90;;;7.53;;
57047;SDS011;42934;54.294;18.598;2023-02-28T04:32:11;18.98;;;7.88;;
57047;SDS011;42934;54.294;18.598;2023-02-28T04:34:41;16.75;;;7.05;;
57047;SDS011;42934;54.294;18.598;2023-02-28T04:37:09;17.15;;;6.97;;
57047;SDS011;42934;54.294;18.598;2023-02-28T04:39:40;19.27;;;7.05;;
57047;SDS011;42934;54.294;18.598;2023-02-28T04:42:11;13.35;;;6.65;;
57047;SDS011;42934;54.294;18.598;2023-02-28T04:44:41;19.20;;;6.40;;
57047;SDS011;42934;54.294;18.598;2023-02-28T04:47:10;18.33;;;6.82;;
57047;SDS011;42934;54.294;18.598;2023-02-28T04:49:39;21.40;;;7.27;;
57047;SDS011;42934;54.294;18.598;2023-02-28T04:52:09;15.25;;;6.35;;
57047;SDS011;42934;54.294;18.598;2023-02-28T04:54:40;18.30;;;6.70;;
57047;SDS011;42934;54.294;18.598;2023-02-28T04:57:09;15.77;;;5.65;;
57047;SDS011;42934;54.294;18.598;2023-02-28T04:59:39;14.88;;;6.10;;
57047;SDS011;42934;54.294;18.598;2023-02-28T05:02:08;12.98;;;5.47;;
57047;SDS011;42934;54.294;18.598;2023-02-28T05:04:37;16.90;;;6.37;;
57047;SDS011;42934;54.294;18.598;2023-02-28T05:07:06;12.88;;;5.32;;
57047;SDS011;42934;54.294;18.598;2023-02-28T05:09:36;13.27;;;5.82;;
57047;SDS011;42934;54.294;18.598;2023-02-28T05:12:05;12.60;;;4.57;;
57047;SDS011;42934;54.294;18.598;2023-02-28T05:14:36;12.77;;;4.70;;
57047;SDS011;42934;54.294;18.598;2023-02-28T05:17:07;13.32;;;4.55;;
57047;SDS011;42934;54.294;18.598;2023-02-28T05:19:38;8.70;;;3.92;;
57047;SDS011;42934;54.294;18.598;2023-02-28T05:22:11;10.65;;;3.80;;
57047;SDS011;42934;54.294;18.598;2023-02-28T05:24:43;10.52;;;4.45;;
57047;SDS011;42934;54.294;18.598;2023-02-28T05:27:12;8.93;;;4.03;;
57047;SDS011;42934;54.294;18.598;2023-02-28T05:29:42;8.40;;;4.07;;
57047;SDS011;42934;54.294;18.598;2023-02-28T05:32:13;11.73;;;4.82;;
57047;SDS011;42934;54.294;18.598;2023-02-28T05:34:42;15.05;;;5.70;;
57047;SDS011;42934;54.294;18.598;2023-02-28T05:37:14;11.50;;;4.93;;
57047;SDS011;42934;54.294;18.598;2023-02-28T05:39:44;11.90;;;5.43;;
57047;SDS011;42934;54.294;18.598;2023-02-28T05:42:13;11.30;;;4.72;;
57047;SDS011;42934;54.294;18.598;2023-02-28T05:44:42;10.57;;;4.38;;
57047;SDS011;42934;54.294;18.598;2023-02-28T05:47:11;9.55;;;4.82;;
57047;SDS011;42934;54.294;18.598;2023-02-28T05:49:42;9.13;;;4.28;;
57047;SDS011;42934;54.294;18.598;2023-02-28T05:52:11;9.10;;;4.60;;
57047;SDS011;42934;54.294;18.598;2023-02-28T05:54:40;11.32;;;4.95;;
57047;SDS011;42934;54.294;18.598;2023-02-28T05:57:09;15.15;;;5.88;;
57047;SDS011;42934;54.294;18.598;2023-02-28T05:59:50;16.23;;;7.50;;
57047;SDS011;42934;54.294;18.598;2023-02-28T06:02:20;23.65;;;8.75;;
57047;SDS011;42934;54.294;18.598;2023-02-28T06:04:50;17.70;;;8.10;;
57047;SDS011;42934;54.294;18.598;2023-02-28T06:07:18;18.23;;;7.80;;
57047;SDS011;42934;54.294;18.598;2023-02-28T06:09:49;21.75;;;8.75;;
57047;SDS011;42934;54.294;18.598;2023-02-28T06:12:18;18.00;;;7.72;;
57047;SDS011;42934;54.294;18.598;2023-02-28T06:14:47;18.92;;;8.75;;
57047;SDS011;42934;54.294;18.598;2023-02-28T06:17:16;16.95;;;7.55;;
57047;SDS011;42934;54.294;18.598;2023-02-28T06:19:46;15.77;;;7.22;;
57047;SDS011;42934;54.294;18.598;2023-02-28T06:22:15;39.45;;;18.70;;
57047;SDS011;42934;54.294;18.598;2023-02-28T06:24:44;20.27;;;7.97;;
57047;SDS011;42934;54.294;18.598;2023-02-28T06:27:14;16.50;;;8.50;;
57047;SDS011;42934;54.294;18.598;2023-02-28T06:29:43;51.20;;;19.23;;
57047;SDS011;42934;54.294;18.598;2023-02-28T06:32:12;38.70;;;13.52;;
57047;SDS011;42934;54.294;18.598;2023-02-28T06:34:41;31.85;;;11.30;;
57047;SDS011;42934;54.294;18.598;2023-02-28T06:37:12;20.52;;;7.68;;
57047;SDS011;42934;54.294;18.598;2023-02-28T06:39:41;43.03;;;14.48;;
57047;SDS011;42934;54.294;18.598;2023-02-28T06:42:10;26.50;;;9.38;;
57047;SDS011;42934;54.294;18.598;2023-02-28T06:44:39;20.40;;;8.05;;
57047;SDS011;42934;54.294;18.598;2023-02-28T06:47:09;54.83;;;16.40;;
57047;SDS011;42934;54.294;18.598;2023-02-28T06:49:38;33.08;;;11.30;;
57047;SDS011;42934;54.294;18.598;2023-02-28T06:52:08;26.20;;;8.63;;
57047;SDS011;42934;54.294;18.598;2023-02-28T06:54:39;23.77;;;9.48;;
57047;SDS011;42934;54.294;18.598;2023-02-28T06:59:37;23.80;;;8.52;;
57047;SDS011;42934;54.294;18.598;2023-02-28T07:02:07;40.20;;;11.88;;
57047;SDS011;42934;54.294;18.598;2023-02-28T07:04:37;42.22;;;14.20;;
57047;SDS011;42934;54.294;18.598;2023-02-28T07:07:07;13.85;;;6.20;;
57047;SDS011;42934;54.294;18.598;2023-02-28T07:09:36;11.43;;;5.20;;
57047;SDS011;42934;54.294;18.598;2023-02-28T07:12:06;15.68;;;6.07;;
57047;SDS011;42934;54.294;18.598;2023-02-28T07:14:36;18.88;;;7.88;;
57047;SDS011;42934;54.294;18.598;2023-02-28T07:17:06;39.47;;;15.50;;
57047;SDS011;42934;54.294;18.598;2023-02-28T07:19:35;56.35;;;19.45;;
57047;SDS011;42934;54.294;18.598;2023-02-28T07:22:04;40.08;;;16.10;;
57047;SDS011;42934;54.294;18.598;2023-02-28T07:24:34;124.65;;;35.53;;
57047;SDS011;42934;54.294;18.598;2023-02-28T07:27:04;26.40;;;10.85;;
57047;SDS011;42934;54.294;18.598;2023-02-28T07:29:33;23.60;;;10.85;;
57047;SDS011;42934;54.294;18.598;2023-02-28T07:32:02;227.63;;;56.35;;
57047;SDS011;42934;54.294;18.598;2023-02-28T07:34:32;21.45;;;8.77;;
57047;SDS011;42934;54.294;18.598;2023-02-28T07:37:01;25.58;;;10.00;;
57047;SDS011;42934;54.294;18.598;2023-02-28T07:39:32;67.00;;;21.10;;
57047;SDS011;42934;54.294;18.598;2023-02-28T07:42:05;19.30;;;7.10;;
57047;SDS011;42934;54.294;18.598;2023-02-28T07:44:38;49.30;;;13.00;;
57047;SDS011;42934;54.294;18.598;2023-02-28T07:47:07;22.65;;;8.38;;
57047;SDS011;42934;54.294;18.598;2023-02-28T07:49:38;73.22;;;21.35;;
57047;SDS011;42934;54.294;18.598;2023-02-28T07:52:07;29.23;;;9.25;;
57047;SDS011;42934;54.294;18.598;2023-02-28T07:54:38;120.00;;;30.60;;
57047;SDS011;42934;54.294;18.598;2023-02-28T07:57:08;37.45;;;11.57;;
57047;SDS011;42934;54.294;18.598;2023-02-28T07:59:37;17.10;;;6.72;;
57047;SDS011;42934;54.294;18.598;2023-02-28T08:02:06;21.20;;;7.13;;
57047;SDS011;42934;54.294;18.598;2023-02-28T08:04:37;21.58;;;6.32;;
57047;SDS011;42934;54.294;18.598;2023-02-28T08:07:06;15.75;;;6.10;;
57047;SDS011;42934;54.294;18.598;2023-02-28T08:09:36;14.90;;;6.47;;
57047;SDS011;42934;54.294;18.598;2023-02-28T08:12:05;21.85;;;8.55;;
57047;SDS011;42934;54.294;18.598;2023-02-28T08:14:37;23.75;;;7.70;;
57047;SDS011;42934;54.294;18.598;2023-02-28T08:17:07;17.10;;;7.93;;
57047;SDS011;42934;54.294;18.598;2023-02-28T08:19:37;19.77;;;7.85;;
57047;SDS011;42934;54.294;18.598;2023-02-28T08:22:06;18.17;;;7.25;;
57047;SDS011;42934;54.294;18.598;2023-02-28T08:24:35;17.63;;;8.15;;
57047;SDS011;42934;54.294;18.598;2023-02-28T08:27:04;18.25;;;8.20;;
57047;SDS011;42934;54.294;18.598;2023-02-28T08:29:34;15.98;;;6.50;;
57047;SDS011;42934;54.294;18.598;2023-02-28T08:32:05;17.65;;;6.97;;
57047;SDS011;42934;54.294;18.598;2023-02-28T08:34:54;17.15;;;7.55;;
57047;SDS011;42934;54.294;18.598;2023-02-28T08:37:23;18.83;;;7.53;;
57047;SDS011;42934;54.294;18.598;2023-02-28T08:39:53;16.77;;;6.75;;
57047;SDS011;42934;54.294;18.598;2023-02-28T08:42:22;15.60;;;6.07;;
57047;SDS011;42934;54.294;18.598;2023-02-28T08:44:53;17.63;;;6.55;;
57047;SDS011;42934;54.294;18.598;2023-02-28T08:47:23;13.90;;;4.97;;
57047;SDS011;42934;54.294;18.598;2023-02-28T08:49:52;21.08;;;6.35;;
57047;SDS011;42934;54.294;18.598;2023-02-28T08:52:21;13.05;;;4.60;;
57047;SDS011;42934;54.294;18.598;2023-02-28T08:54:50;11.95;;;4.40;;
57047;SDS011;42934;54.294;18.598;2023-02-28T08:57:19;11.38;;;3.80;;
57047;SDS011;42934;54.294;18.598;2023-02-28T08:59:48;5.22;;;2.40;;
57047;SDS011;42934;54.294;18.598;2023-02-28T09:02:19;7.80;;;2.63;;
57047;SDS011;42934;54.294;18.598;2023-02-28T09:04:48;12.55;;;4.43;;
57047;SDS011;42934;54.294;18.598;2023-02-28T09:07:17;5.07;;;2.25;;
57047;SDS011;42934;54.294;18.598;2023-02-28T09:09:46;10.70;;;2.67;;
57047;SDS011;42934;54.294;18.598;2023-02-28T09:12:21;44.08;;;14.65;;
57047;SDS011;42934;54.294;18.598;2023-02-28T09:14:51;7.85;;;3.55;;
57047;SDS011;42934;54.294;18.598;2023-02-28T09:17:22;13.05;;;3.90;;
57047;SDS011;42934;54.294;18.598;2023-02-28T09:19:57;17.35;;;4.65;;
57047;SDS011;42934;54.294;18.598;2023-02-28T09:22:26;28.65;;;8.57;;
57047;SDS011;42934;54.294;18.598;2023-02-28T09:24:55;5.93;;;2.55;;
57047;SDS011;42934;54.294;18.598;2023-02-28T09:27:24;5.30;;;2.03;;
57047;SDS011;42934;54.294;18.598;2023-02-28T09:29:53;5.07;;;2.10;;
57047;SDS011;42934;54.294;18.598;2023-02-28T09:32:23;25.63;;;7.43;;
57047;SDS011;42934;54.294;18.598;2023-02-28T09:34:53;43.53;;;10.40;;
57047;SDS011;42934;54.294;18.598;2023-02-28T09:37:22;12.15;;;3.38;;
57047;SDS011;42934;54.294;18.598;2023-02-28T09:39:51;7.75;;;2.10;;
57047;SDS011;42934;54.294;18.598;2023-02-28T09:42:21;4.13;;;2.20;;
57047;SDS011;42934;54.294;18.598;2023-02-28T09:44:55;30.83;;;9.25;;
57047;SDS011;42934;54.294;18.598;2023-02-28T09:47:29;18.52;;;6.07;;
57047;SDS011;42934;54.294;18.598;2023-02-28T09:50:02;20.48;;;7.93;;
57047;SDS011;42934;54.294;18.598;2023-02-28T09:52:43;20.92;;;7.15;;
57047;SDS011;42934;54.294;18.598;2023-02-28T09:55:19;9.07;;;3.78;;
57047;SDS011;42934;54.294;18.598;2023-02-28T09:57:54;9.68;;;4.95;;
57047;SDS011;42934;54.294;18.598;2023-02-28T10:00:28;19.02;;;7.57;;
57047;SDS011;42934;54.294;18.598;2023-02-28T10:03:10;15.25;;;6.70;;
57047;SDS011;42934;54.294;18.598;2023-02-28T10:05:54;31.00;;;10.88;;
57047;SDS011;42934;54.294;18.598;2023-02-28T10:08:31;31.05;;;12.27;;
57047;SDS011;42934;54.294;18.598;2023-02-28T10:11:09;18.73;;;8.23;;
57047;SDS011;42934;54.294;18.598;2023-02-28T10:13:46;37.88;;;13.68;;
57047;SDS011;42934;54.294;18.598;2023-02-28T10:16:22;21.42;;;9.45;;
57047;SDS011;42934;54.294;18.598;2023-02-28T10:18:59;19.23;;;7.10;;
57047;SDS011;42934;54.294;18.598;2023-02-28T10:21:34;26.63;;;9.77;;
57047;SDS011;42934;54.294;18.598;2023-02-28T10:24:11;19.00;;;7.57;;
57047;SDS011;42934;54.294;18.598;2023-02-28T10:26:48;15.85;;;6.60;;
57047;SDS011;42934;54.294;18.598;2023-02-28T10:29:19;18.83;;;8.27;;
57047;SDS011;42934;54.294;18.598;2023-02-28T10:31:48;14.48;;;7.13;;
57047;SDS011;42934;54.294;18.598;2023-02-28T10:34:19;19.90;;;7.70;;
57047;SDS011;42934;54.294;18.598;2023-02-28T10:36:48;13.52;;;6.80;;
57047;SDS011;42934;54.294;18.598;2023-02-28T10:39:34;46.60;;;14.88;;
57047;SDS011;42934;54.294;18.598;2023-02-28T10:42:18;20.38;;;8.60;;
57047;SDS011;42934;54.294;18.598;2023-02-28T10:45:04;11.57;;;5.70;;
57047;SDS011;42934;54.294;18.598;2023-02-28T10:47:40;17.17;;;7.15;;
57047;SDS011;42934;54.294;18.598;2023-02-28T10:50:28;10.90;;;5.60;;
57047;SDS011;42934;54.294;18.598;2023-02-28T10:53:05;28.98;;;11.35;;
57047;SDS011;42934;54.294;18.598;2023-02-28T10:55:56;52.63;;;19.83;;
57047;SDS011;42934;54.294;18.598;2023-02-28T10:58:29;16.88;;;7.32;;
57047;SDS011;42934;54.294;18.598;2023-02-28T11:01:00;18.35;;;8.13;;
57047;SDS011;42934;54.294;18.598;2023-02-28T11:03:30;12.32;;;5.65;;
57047;SDS011;42934;54.294;18.598;2023-02-28T11:06:05;35.95;;;13.82;;
57047;SDS011;42934;54.294;18.598;2023-02-28T11:08:44;7.70;;;3.80;;
57047;SDS011;42934;54.294;18.598;2023-02-28T11:11:15;8.45;;;4.30;;
57047;SDS011;42934;54.294;18.598;2023-02-28T11:13:45;21.65;;;7.85;;
57047;SDS011;42934;54.294;18.598;2023-02-28T11:16:17;21.63;;;6.03;;
57047;SDS011;42934;54.294;18.598;2023-02-28T11:18:48;33.65;;;8.85;;
57047;SDS011;42934;54.294;18.598;2023-02-28T11:21:22;9.63;;;4.30;;
57047;SDS011;42934;54.294;18.598;2023-02-28T11:23:58;8.80;;;4.40;;
57047;SDS011;42934;54.294;18.598;2023-02-28T11:26:35;18.02;;;7.15;;
57047;SDS011;42934;54.294;18.598;2023-02-28T11:29:16;10.98;;;5.40;;
57047;SDS011;42934;54.294;18.598;2023-02-28T11:32:11;11.77;;;5.45;;
57047;SDS011;42934;54.294;18.598;2023-02-28T11:34:44;20.20;;;7.00;;
57047;SDS011;42934;54.294;18.598;2023-02-28T11:37:16;23.88;;;9.27;;
57047;SDS011;42934;54.294;18.598;2023-02-28T11:39:46;36.30;;;14.25;;
57047;SDS011;42934;54.294;18.598;2023-02-28T11:42:31;20.10;;;7.60;;
57047;SDS011;42934;54.294;18.598;2023-02-28T11:45:15;48.60;;;13.88;;
57047;SDS011;42934;54.294;18.598;2023-02-28T11:48:01;64.68;;;23.60;;
57047;SDS011;42934;54.294;18.598;2023-02-28T11:50:42;13.82;;;6.30;;
57047;SDS011;42934;54.294;18.598;2023-02-28T11:53:21;9.18;;;5.28;;
57047;SDS011;42934;54.294;18.598;2023-02-28T11:56:03;18.92;;;7.78;;
57047;SDS011;42934;54.294;18.598;2023-02-28T11:58:41;55.50;;;24.95;;
57047;SDS011;42934;54.294;18.598;2023-02-28T12:01:22;21.38;;;9.20;;
57047;SDS011;42934;54.294;18.598;2023-02-28T12:04:04;14.90;;;7.00;;
57047;SDS011;42934;54.294;18.598;2023-02-28T12:06:43;17.13;;;7.30;;
57047;SDS011;42934;54.294;18.598;2023-02-28T12:09:24;9.80;;;5.43;;
57047;SDS011;42934;54.294;18.598;2023-02-28T12:12:12;8.55;;;4.53;;
57047;SDS011;42934;54.294;18.598;2023-02-28T12:14:57;8.48;;;4.47;;
57047;SDS011;42934;54.294;18.598;2023-02-28T12:17:48;9.88;;;4.07;;
57047;SDS011;42934;54.294;18.598;2023-02-28T12:20:31;9.73;;;3.80;;
57047;SDS011;42934;54.294;18.598;2023-02-28T12:26:07;8.45;;;3.92;;
57047;SDS011;42934;54.294;18.598;2023-02-28T12:28:46;11.20;;;4.15;;
57047;SDS011;42934;54.294;18.598;2023-02-28T12:31:20;6.55;;;3.45;;
57047;SDS011;42934;54.294;18.598;2023-02-28T12:33:53;7.80;;;3.60;;
57047;SDS011;42934;54.294;18.598;2023-02-28T12:36:27;5.78;;;3.45;;
57047;SDS011;42934;54.294;18.598;2023-02-28T12:38:58;6.68;;;3.88;;
57047;SDS011;42934;54.294;18.598;2023-02-28T12:41:36;8.63;;;3.67;;
57047;SDS011;42934;54.294;18.598;2023-02-28T12:44:11;7.53;;;3.30;;
57047;SDS011;42934;54.294;18.598;2023-02-28T12:46:46;7.75;;;3.40;;
57047;SDS011;42934;54.294;18.598;2023-02-28T12:49:18;7.47;;;3.88;;
57047;SDS011;42934;54.294;18.598;2023-02-28T12:51:53;6.32;;;3.22;;
57047;SDS011;42934;54.294;18.598;2023-02-28T12:54:24;6.17;;;3.10;;
57047;SDS011;42934;54.294;18.598;2023-02-28T12:57:00;7.00;;;3.38;;
57047;SDS011;42934;54.294;18.598;2023-02-28T12:59:38;7.78;;;3.22;;
57047;SDS011;42934;54.294;18.598;2023-02-28T13:05:22;6.35;;;3.47;;
57047;SDS011;42934;54.294;18.598;2023-02-28T13:11:22;7.70;;;3.60;;
57047;SDS011;42934;54.294;18.598;2023-02-28T13:13:58;7.70;;;3.90;;
57047;SDS011;42934;54.294;18.598;2023-02-28T13:16:51;7.22;;;3.65;;
57047;SDS011;42934;54.294;18.598;2023-02-28T13:19:27;7.22;;;3.63;;
57047;SDS011;42934;54.294;18.598;2023-02-28T13:21:59;8.93;;;3.60;;
57047;SDS011;42934;54.294;18.598;2023-02-28T13:24:42;7.22;;;3.60;;
57047;SDS011;42934;54.294;18.598;2023-02-28T13:36:08;10.95;;;4.70;;
57047;SDS011;42934;54.294;18.598;2023-02-28T13:38:40;8.98;;;4.00;;
57047;SDS011;42934;54.294;18.598;2023-02-28T13:44:17;8.20;;;4.10;;
57047;SDS011;42934;54.294;18.598;2023-02-28T13:49:53;5.68;;;3.17;;
57047;SDS011;42934;54.294;18.598;2023-02-28T13:54:54;8.57;;;3.88;;
57047;SDS011;42934;54.294;18.598;2023-02-28T13:57:51;9.82;;;4.38;;
57047;SDS011;42934;54.294;18.598;2023-02-28T14:00:36;7.72;;;3.78;;
57047;SDS011;42934;54.294;18.598;2023-02-28T14:03:28;8.13;;;3.78;;
57047;SDS011;42934;54.294;18.598;2023-02-28T14:06:14;6.88;;;3.58;;
57047;SDS011;42934;54.294;18.598;2023-02-28T14:08:53;6.03;;;2.85;;
57047;SDS011;42934;54.294;18.598;2023-02-28T14:11:28;5.50;;;2.80;;
57047;SDS011;42934;54.294;18.598;2023-02-28T14:14:01;6.45;;;3.00;;
57047;SDS011;42934;54.294;18.598;2023-02-28T14:16:36;5.55;;;3.22;;
57047;SDS011;42934;54.294;18.598;2023-02-28T14:19:12;5.53;;;2.72;;
57047;SDS011;42934;54.294;18.598;2023-02-28T14:21:53;7.53;;;3.10;;
57047;SDS011;42934;54.294;18.598;2023-02-28T14:27:41;9.07;;;2.63;;
57047;SDS011;42934;54.294;18.598;2023-02-28T14:30:29;6.97;;;2.70;;
57047;SDS011;42934;54.294;18.598;2023-02-28T14:33:19;7.65;;;3.10;;
57047;SDS011;42934;54.294;18.598;2023-02-28T14:36:03;5.72;;;3.03;;
57047;SDS011;42934;54.294;18.598;2023-02-28T14:38:42;8.50;;;3.42;;
57047;SDS011;42934;54.294;18.598;2023-02-28T14:41:16;5.20;;;2.85;;
57047;SDS011;42934;54.294;18.598;2023-02-28T14:43:54;7.05;;;2.83;;
57047;SDS011;42934;54.294;18.598;2023-02-28T14:46:25;7.75;;;3.08;;
57047;SDS011;42934;54.294;18.598;2023-02-28T14:49:01;10.32;;;3.58;;
57047;SDS011;42934;54.294;18.598;2023-02-28T14:51:31;6.55;;;3.13;;
57047;SDS011;42934;54.294;18.598;2023-02-28T14:54:02;5.57;;;3.08;;
57047;SDS011;42934;54.294;18.598;2023-02-28T14:56:34;7.68;;;2.70;;
57047;SDS011;42934;54.294;18.598;2023-02-28T14:59:17;4.97;;;2.75;;
57047;SDS011;42934;54.294;18.598;2023-02-28T15:04:43;9.00;;;3.55;;
57047;SDS011;42934;54.294;18.598;2023-02-28T15:07:20;7.43;;;3.47;;
57047;SDS011;42934;54.294;18.598;2023-02-28T15:10:11;7.03;;;3.30;;
57047;SDS011;42934;54.294;18.598;2023-02-28T15:12:48;8.45;;;4.22;;
57047;SDS011;42934;54.294;18.598;2023-02-28T15:15:21;6.30;;;3.03;;
57047;SDS011;42934;54.294;18.598;2023-02-28T15:18:06;6.80;;;3.55;;
57047;SDS011;42934;54.294;18.598;2023-02-28T15:20:42;5.68;;;3.17;;
57047;SDS011;42934;54.294;18.598;2023-02-28T15:23:13;10.32;;;4.90;;
57047;SDS011;42934;54.294;18.598;2023-02-28T15:25:45;8.20;;;4.82;;
57047;SDS011;42934;54.294;18.598;2023-02-28T15:28:15;10.38;;;4.28;;
57047;SDS011;42934;54.294;18.598;2023-02-28T15:30:51;21.65;;;8.85;;
57047;SDS011;42934;54.294;18.598;2023-02-28T15:33:23;18.75;;;7.30;;
57047;SDS011;42934;54.294;18.598;2023-02-28T15:36:09;22.35;;;9.63;;
57047;SDS011;42934;54.294;18.598;2023-02-28T15:38:43;36.72;;;13.25;;
57047;SDS011;42934;54.294;18.598;2023-02-28T15:41:23;11.07;;;4.95;;
57047;SDS011;42934;54.294;18.598;2023-02-28T15:46:52;12.70;;;5.20;;
57047;SDS011;42934;54.294;18.598;2023-02-28T15:49:24;41.72;;;15.43;;
57047;SDS011;42934;54.294;18.598;2023-02-28T15:54:27;12.88;;;5.72;;